sensor_id;sensor_type;location;lat;lon;timestamp;pressure;altitude;pressure_sealevel;temperature;humidity
56632;BME280;42503;39.928;-75.152;2023-01-16T00:00:57;101576.03;;;18.55;40.16
56632;BME280;42503;39.928;-75.152;2023-01-16T00:10:58;101623.09;;;18.78;40.33
56632;BME280;42503;39.928;-75.152;2023-01-16T00:21:06;101602.88;;;18.66;40.32
56632;BME280;42503;39.928;-75.152;2023-01-16T00:31:07;101618.28;;;18.74;39.61
56632;BME280;42503;39.928;-75.152;2023-01-16T00:41:09;101617.44;;;18.73;39.47
56632;BME280;42503;39.928;-75.152;2023-01-16T00:51:10;101608.53;;;18.71;39.36
56632;BME280;42503;39.928;-75.152;2023-01-16T01:01:11;101619.63;;;18.71;39.21
56632;BME280;42503;39.928;-75.152;2023-01-16T01:11:14;101623.94;;;18.67;39.27
56632;BME280;42503;39.928;-75.152;2023-01-16T01:21:15;101617.81;;;18.65;39.50
56632;BME280;42503;39.928;-75.152;2023-01-16T01:31:19;101591.44;;;18.63;39.29
56632;BME280;42503;39.928;-75.152;2023-01-16T01:41:23;101600.59;;;18.63;39.33
56632;BME280;42503;39.928;-75.152;2023-01-16T01:51:29;101588.91;;;18.61;39.32
56632;BME280;42503;39.928;-75.152;2023-01-16T02:01:33;101585.78;;;18.58;38.88
56632;BME280;42503;39.928;-75.152;2023-01-16T02:32:25;101560.25;;;18.39;38.56
56632;BME280;42503;39.928;-75.152;2023-01-16T02:42:37;101560.16;;;18.34;38.48
56632;BME280;42503;39.928;-75.152;2023-01-16T03:02:58;101598.03;;;18.45;38.38
56632;BME280;42503;39.928;-75.152;2023-01-16T03:44:17;101597.94;;;18.40;37.64
56632;BME280;42503;39.928;-75.152;2023-01-16T04:14:55;101604.56;;;18.39;37.33
56632;BME280;42503;39.928;-75.152;2023-01-16T04:25:00;101611.31;;;18.43;37.18
56632;BME280;42503;39.928;-75.152;2023-01-16T04:35:03;101607.09;;;18.40;36.97
56632;BME280;42503;39.928;-75.152;2023-01-16T04:45:05;101604.56;;;18.39;37.18
56632;BME280;42503;39.928;-75.152;2023-01-16T04:55:10;101591.19;;;18.36;37.16
56632;BME280;42503;39.928;-75.152;2023-01-16T05:05:11;101567.72;;;18.38;37.04
56632;BME280;42503;39.928;-75.152;2023-01-16T05:15:25;101520.97;;;18.13;36.84
56632;BME280;42503;39.928;-75.152;2023-01-16T05:25:26;101559.88;;;18.35;36.63
56632;BME280;42503;39.928;-75.152;2023-01-16T05:35:28;101562.91;;;18.34;36.87
56632;BME280;42503;39.928;-75.152;2023-01-16T05:45:29;101544.63;;;18.33;37.09
56632;BME280;42503;39.928;-75.152;2023-01-16T05:55:36;101547.63;;;18.31;36.78
56632;BME280;42503;39.928;-75.152;2023-01-16T06:05:40;101516.69;;;18.22;36.74
56632;BME280;42503;39.928;-75.152;2023-01-16T06:15:42;101532.34;;;18.28;36.86
56632;BME280;42503;39.928;-75.152;2023-01-16T06:25:43;101535.34;;;18.27;36.69
56632;BME280;42503;39.928;-75.152;2023-01-16T06:35:48;101526.47;;;18.25;36.86
56632;BME280;42503;39.928;-75.152;2023-01-16T06:45:54;101532.84;;;18.25;36.76
56632;BME280;42503;39.928;-75.152;2023-01-16T06:55:56;101546.59;;;18.20;36.40
56632;BME280;42503;39.928;-75.152;2023-01-16T07:05:57;101549.09;;;18.22;36.36
56632;BME280;42503;39.928;-75.152;2023-01-16T07:15:59;101532.66;;;18.15;36.32
56632;BME280;42503;39.928;-75.152;2023-01-16T07:26:21;101551.53;;;18.18;36.57
56632;BME280;42503;39.928;-75.152;2023-01-16T07:36:23;101563.34;;;18.14;36.03
56632;BME280;42503;39.928;-75.152;2023-01-16T07:46:24;101564.78;;;18.16;35.78
56632;BME280;42503;39.928;-75.152;2023-01-16T07:56:26;101571.34;;;18.10;36.21
56632;BME280;42503;39.928;-75.152;2023-01-16T08:06:27;101547.66;;;17.91;36.07
56632;BME280;42503;39.928;-75.152;2023-01-16T08:16:28;101518.28;;;17.90;35.91
56632;BME280;42503;39.928;-75.152;2023-01-16T08:26:30;101543.84;;;18.09;36.15
56632;BME280;42503;39.928;-75.152;2023-01-16T08:36:32;101504.72;;;17.88;36.01
56632;BME280;42503;39.928;-75.152;2023-01-16T08:46:33;101530.28;;;18.07;35.44
56632;BME280;42503;39.928;-75.152;2023-01-16T08:56:53;101525.91;;;18.11;35.81
56632;BME280;42503;39.928;-75.152;2023-01-16T09:06:54;101535.91;;;18.12;35.45
56632;BME280;42503;39.928;-75.152;2023-01-16T09:16:58;101562.03;;;18.16;35.98
56632;BME280;42503;39.928;-75.152;2023-01-16T09:27:03;101563.22;;;18.20;35.71
56632;BME280;42503;39.928;-75.152;2023-01-16T09:37:08;101563.56;;;18.24;35.64
56632;BME280;42503;39.928;-75.152;2023-01-16T09:47:13;101555.34;;;18.29;35.81
56632;BME280;42503;39.928;-75.152;2023-01-16T09:57:14;101544.28;;;18.29;35.41
56632;BME280;42503;39.928;-75.152;2023-01-16T10:38:44;101552.38;;;18.47;35.02
56632;BME280;42503;39.928;-75.152;2023-01-16T10:48:51;101542.13;;;18.48;34.85
56632;BME280;42503;39.928;-75.152;2023-01-16T10:59:11;101533.88;;;18.53;35.39
56632;BME280;42503;39.928;-75.152;2023-01-16T11:19:25;101522.63;;;18.43;35.71
56632;BME280;42503;39.928;-75.152;2023-01-16T11:29:36;101529.19;;;18.53;35.45
56632;BME280;42503;39.928;-75.152;2023-01-16T11:39:38;101535.56;;;18.54;35.06
56632;BME280;42503;39.928;-75.152;2023-01-16T11:49:45;101551.34;;;18.53;34.99
56632;BME280;42503;39.928;-75.152;2023-01-16T11:59:56;101527.75;;;18.51;35.26
56632;BME280;42503;39.928;-75.152;2023-01-16T12:10:14;101544.63;;;18.49;35.28
56632;BME280;42503;39.928;-75.152;2023-01-16T12:42:17;101520.44;;;18.45;35.54
56632;BME280;42503;39.928;-75.152;2023-01-16T13:13:56;101503.16;;;18.38;36.88
56632;BME280;42503;39.928;-75.152;2023-01-16T13:24:22;101494.13;;;18.31;36.74
56632;BME280;42503;39.928;-75.152;2023-01-16T13:34:39;101496.91;;;18.31;36.64
56632;BME280;42503;39.928;-75.152;2023-01-16T13:44:46;101474.41;;;18.10;36.62
56632;BME280;42503;39.928;-75.152;2023-01-16T13:55:26;101499.59;;;18.25;36.77
56632;BME280;42503;39.928;-75.152;2023-01-16T14:26:52;101467.97;;;17.93;37.11
56632;BME280;42503;39.928;-75.152;2023-01-16T14:37:02;101465.72;;;18.07;36.75
56632;BME280;42503;39.928;-75.152;2023-01-16T14:57:35;101469.47;;;18.00;37.11
56632;BME280;42503;39.928;-75.152;2023-01-16T15:17:44;101435.09;;;17.96;37.13
56632;BME280;42503;39.928;-75.152;2023-01-16T15:38:08;101410.81;;;17.87;37.55
56632;BME280;42503;39.928;-75.152;2023-01-16T15:58:23;101375.69;;;17.87;37.51
56632;BME280;42503;39.928;-75.152;2023-01-16T16:08:27;101337.44;;;17.72;37.20
56632;BME280;42503;39.928;-75.152;2023-01-16T16:18:30;101329.69;;;17.86;37.35
56632;BME280;42503;39.928;-75.152;2023-01-16T16:39:00;101253.88;;;17.59;37.16
56632;BME280;42503;39.928;-75.152;2023-01-16T16:59:19;101262.25;;;17.92;38.22
56632;BME280;42503;39.928;-75.152;2023-01-16T17:09:24;101233.88;;;18.02;37.52
56632;BME280;42503;39.928;-75.152;2023-01-16T17:19:30;101216.81;;;18.10;37.45
56632;BME280;42503;39.928;-75.152;2023-01-16T17:29:32;101215.78;;;18.16;37.31
56632;BME280;42503;39.928;-75.152;2023-01-16T17:39:33;101176.81;;;18.23;37.64
56632;BME280;42503;39.928;-75.152;2023-01-16T17:49:38;101165.13;;;18.38;38.04
56632;BME280;42503;39.928;-75.152;2023-01-16T17:59:58;101122.50;;;18.44;37.85
56632;BME280;42503;39.928;-75.152;2023-01-16T18:10:00;101100.28;;;18.66;37.66
56632;BME280;42503;39.928;-75.152;2023-01-16T18:20:01;101077.41;;;18.75;37.35
56632;BME280;42503;39.928;-75.152;2023-01-16T18:30:03;101075.59;;;18.91;38.12
56632;BME280;42503;39.928;-75.152;2023-01-16T18:40:20;101085.94;;;19.01;37.64
56632;BME280;42503;39.928;-75.152;2023-01-16T18:50:40;101032.94;;;18.92;37.41
56632;BME280;42503;39.928;-75.152;2023-01-16T19:01:00;101062.28;;;19.25;37.44
56632;BME280;42503;39.928;-75.152;2023-01-16T19:11:20;101013.38;;;19.14;36.78
56632;BME280;42503;39.928;-75.152;2023-01-16T19:21:23;101041.81;;;19.37;36.52
56632;BME280;42503;39.928;-75.152;2023-01-16T19:31:24;101041.81;;;19.37;36.46
56632;BME280;42503;39.928;-75.152;2023-01-16T19:41:26;101032.97;;;19.40;36.58
56632;BME280;42503;39.928;-75.152;2023-01-16T19:51:50;101032.97;;;19.40;36.41
56632;BME280;42503;39.928;-75.152;2023-01-16T20:02:01;101025.75;;;19.39;36.00
56632;BME280;42503;39.928;-75.152;2023-01-16T20:12:13;101005.75;;;19.37;35.88
56632;BME280;42503;39.928;-75.152;2023-01-16T20:22:33;100986.88;;;19.34;35.73
56632;BME280;42503;39.928;-75.152;2023-01-16T20:32:35;100970.78;;;19.36;35.76
56632;BME280;42503;39.928;-75.152;2023-01-16T20:42:39;100962.66;;;19.24;35.82
56632;BME280;42503;39.928;-75.152;2023-01-16T20:52:58;100989.66;;;19.34;35.75
56632;BME280;42503;39.928;-75.152;2023-01-16T21:02:59;100978.25;;;19.30;35.53
56632;BME280;42503;39.928;-75.152;2023-01-16T21:13:01;101022.09;;;19.33;35.34
56632;BME280;42503;39.928;-75.152;2023-01-16T21:23:20;101015.72;;;19.33;35.85
56632;BME280;42503;39.928;-75.152;2023-01-16T21:33:21;101033.50;;;19.37;35.30
56632;BME280;42503;39.928;-75.152;2023-01-16T21:43:23;101015.72;;;19.33;35.18
56632;BME280;42503;39.928;-75.152;2023-01-16T21:53:43;101015.16;;;19.30;34.84
56632;BME280;42503;39.928;-75.152;2023-01-16T22:03:44;101002.38;;;19.24;35.18
56632;BME280;42503;39.928;-75.152;2023-01-16T22:13:45;101025.66;;;19.28;34.85
56632;BME280;42503;39.928;-75.152;2023-01-16T22:24:05;101030.66;;;19.26;35.11
56632;BME280;42503;39.928;-75.152;2023-01-16T22:34:06;101024.59;;;19.29;34.65
56632;BME280;42503;39.928;-75.152;2023-01-16T22:44:09;100986.41;;;19.04;34.47
56632;BME280;42503;39.928;-75.152;2023-01-16T22:54:29;101032.28;;;19.22;34.47
56632;BME280;42503;39.928;-75.152;2023-01-16T23:04:31;101042.84;;;19.20;34.41
56632;BME280;42503;39.928;-75.152;2023-01-16T23:14:35;101004.47;;;19.07;34.57
56632;BME280;42503;39.928;-75.152;2023-01-16T23:24:36;101024.78;;;19.18;34.56
56632;BME280;42503;39.928;-75.152;2023-01-16T23:34:38;101005.63;;;19.16;34.15
56632;BME280;42503;39.928;-75.152;2023-01-16T23:44:39;100985.59;;;19.09;34.18
56632;BME280;42503;39.928;-75.152;2023-01-16T23:54:42;100997.28;;;19.11;34.22
